DAL1152 KSFO-KPHX
Flight info
| Callsign | DAL1152 |
|---|---|
| Flight time | 1h 35m |
| Altitude | 35000 |
| Route | WESLA5 KAYEX LOSHN BOILE BLH HYDRR1 |
| Aircraft | A320/M-SDE3FGHIRWY/LB1 |
Departure
| Time | 2026-05-08 04:22 |
|---|---|
| Airport | San Francisco International Airport (KSFO) |
Arrival
| Time | 2026-05-08 05:57 |
|---|---|
| Airport | Phoenix Sky Harbor International Airport (KPHX) |
| Time | Latitude | Longitude | Altitude | Speed | Heading |
|---|---|---|---|---|---|
| 2026-05-08 03:56 | 37.61535 | -122.38225 | 24 ft | 0 kts | 223° |
| 2026-05-08 04:12 | 37.61539 | -122.38220 | 22 ft | 4 kts | 223° |
| 2026-05-08 04:12 | 37.61556 | -122.38201 | 22 ft | 2 kts | 223° |
| 2026-05-08 04:12 | 37.61572 | -122.38177 | 24 ft | 4 kts | 236° |
| 2026-05-08 04:12 | 37.61587 | -122.38152 | 25 ft | 4 kts | 208° |
| 2026-05-08 04:13 | 37.61605 | -122.38152 | 25 ft | 4 kts | 130° |
| 2026-05-08 04:13 | 37.61609 | -122.38157 | 22 ft | 4 kts | 117° |
| 2026-05-08 04:13 | 37.61596 | -122.38127 | 23 ft | 4 kts | 117° |
| 2026-05-08 04:13 | 37.61591 | -122.38114 | 22 ft | 0 kts | 117° |
| 2026-05-08 04:15 | 37.61576 | -122.38074 | 22 ft | 9 kts | 109° |
| 2026-05-08 04:15 | 37.61610 | -122.38003 | 22 ft | 11 kts | 25° |
| 2026-05-08 04:16 | 37.61672 | -122.37938 | 23 ft | 11 kts | 65° |
| 2026-05-08 04:16 | 37.61672 | -122.37843 | 22 ft | 10 kts | 99° |
| 2026-05-08 04:16 | 37.61662 | -122.37759 | 22 ft | 9 kts | 97° |
| 2026-05-08 04:16 | 37.61654 | -122.37657 | 22 ft | 13 kts | 97° |
| 2026-05-08 04:17 | 37.61643 | -122.37547 | 22 ft | 12 kts | 97° |
| 2026-05-08 04:17 | 37.61631 | -122.37433 | 22 ft | 18 kts | 98° |
| 2026-05-08 04:17 | 37.61613 | -122.37286 | 22 ft | 16 kts | 102° |
| 2026-05-08 04:17 | 37.61572 | -122.37159 | 22 ft | 15 kts | 117° |
| 2026-05-08 04:18 | 37.61526 | -122.37047 | 23 ft | 14 kts | 117° |
| 2026-05-08 04:18 | 37.61480 | -122.36947 | 22 ft | 14 kts | 126° |
| 2026-05-08 04:18 | 37.61398 | -122.36830 | 22 ft | 18 kts | 132° |
| 2026-05-08 04:18 | 37.61332 | -122.36700 | 24 ft | 17 kts | 118° |
| 2026-05-08 04:19 | 37.61255 | -122.36515 | 23 ft | 26 kts | 117° |
| 2026-05-08 04:19 | 37.61172 | -122.36325 | 24 ft | 24 kts | 120° |
| 2026-05-08 04:19 | 37.61096 | -122.36142 | 22 ft | 22 kts | 116° |
| 2026-05-08 04:19 | 37.61055 | -122.35969 | 22 ft | 20 kts | 77° |
| 2026-05-08 04:20 | 37.61097 | -122.35907 | 23 ft | 7 kts | 29° |
| 2026-05-08 04:20 | 37.61140 | -122.35880 | 24 ft | 6 kts | 17° |
| 2026-05-08 04:20 | 37.61179 | -122.35882 | 22 ft | 5 kts | 344° |
| 2026-05-08 04:20 | 37.61203 | -122.35910 | 22 ft | 5 kts | 301° |
| 2026-05-08 04:21 | 37.61209 | -122.35923 | 22 ft | 5 kts | 299° |
| 2026-05-08 04:21 | 37.61321 | -122.36195 | 22 ft | 70 kts | 297° |
| 2026-05-08 04:21 | 37.61640 | -122.36968 | 24 ft | 126 kts | 298° |
| 2026-05-08 04:21 | 37.62093 | -122.38129 | 102 ft | 164 kts | 294° |
| 2026-05-08 04:22 | 37.62653 | -122.39433 | 676 ft | 171 kts | 296° |
| 2026-05-08 04:22 | 37.63220 | -122.40740 | 1477 ft | 168 kts | 298° |
| 2026-05-08 04:22 | 37.63594 | -122.41592 | 1974 ft | 170 kts | 298° |
| 2026-05-08 04:22 | 37.64202 | -122.42971 | 2311 ft | 191 kts | 298° |
| 2026-05-08 04:23 | 37.64885 | -122.44526 | 2612 ft | 215 kts | 299° |
| 2026-05-08 04:23 | 37.65656 | -122.46273 | 3050 ft | 237 kts | 299° |
| 2026-05-08 04:23 | 37.66457 | -122.48084 | 3982 ft | 236 kts | 298° |
| 2026-05-08 04:23 | 37.66943 | -122.50129 | 4500 ft | 257 kts | 268° |
| 2026-05-08 04:24 | 37.66346 | -122.52269 | 5209 ft | 267 kts | 232° |
| 2026-05-08 04:24 | 37.64834 | -122.53623 | 6036 ft | 276 kts | 199° |
| 2026-05-08 04:24 | 37.62909 | -122.53734 | 6867 ft | 283 kts | 170° |
| 2026-05-08 04:24 | 37.61012 | -122.53001 | 7689 ft | 288 kts | 159° |
| 2026-05-08 04:25 | 37.59159 | -122.51982 | 8515 ft | 292 kts | 158° |
| 2026-05-08 04:25 | 37.57286 | -122.50955 | 9364 ft | 295 kts | 160° |
| 2026-05-08 04:25 | 37.55371 | -122.50003 | 10179 ft | 299 kts | 161° |
| 2026-05-08 04:25 | 37.53338 | -122.49102 | 10480 ft | 321 kts | 164° |
| 2026-05-08 04:26 | 37.51143 | -122.48188 | 10704 ft | 344 kts | 160° |
| 2026-05-08 04:26 | 37.48991 | -122.46734 | 11223 ft | 356 kts | 146° |
| 2026-05-08 04:26 | 37.47173 | -122.44634 | 11881 ft | 363 kts | 131° |
| 2026-05-08 04:26 | 37.45565 | -122.42163 | 12618 ft | 366 kts | 130° |
| 2026-05-08 04:27 | 37.43955 | -122.39660 | 13319 ft | 370 kts | 130° |
| 2026-05-08 04:27 | 37.42338 | -122.37138 | 14052 ft | 372 kts | 130° |
| 2026-05-08 04:27 | 37.40702 | -122.34591 | 14671 ft | 375 kts | 130° |
| 2026-05-08 04:27 | 37.39057 | -122.32035 | 15307 ft | 378 kts | 130° |
| 2026-05-08 04:28 | 37.37390 | -122.29448 | 15906 ft | 382 kts | 130° |
| 2026-05-08 04:28 | 37.35714 | -122.26843 | 16530 ft | 385 kts | 130° |
| 2026-05-08 04:28 | 37.34019 | -122.24213 | 17143 ft | 388 kts | 129° |
| 2026-05-08 04:28 | 37.32309 | -122.21565 | 17779 ft | 391 kts | 130° |
| 2026-05-08 04:29 | 37.30584 | -122.18902 | 18373 ft | 396 kts | 129° |
| 2026-05-08 04:29 | 37.28833 | -122.16202 | 18924 ft | 399 kts | 130° |
| 2026-05-08 04:29 | 37.27071 | -122.13487 | 19461 ft | 402 kts | 130° |
| 2026-05-08 04:29 | 37.25299 | -122.10752 | 19965 ft | 406 kts | 130° |
| 2026-05-08 04:30 | 37.23507 | -122.07986 | 20513 ft | 409 kts | 130° |
| 2026-05-08 04:30 | 37.21704 | -122.05209 | 21071 ft | 412 kts | 130° |
| 2026-05-08 04:30 | 37.19888 | -122.02416 | 21597 ft | 415 kts | 130° |
| 2026-05-08 04:30 | 37.18055 | -121.99604 | 22154 ft | 417 kts | 130° |
| 2026-05-08 04:31 | 37.16213 | -121.96780 | 22645 ft | 420 kts | 130° |
| 2026-05-08 04:31 | 37.14357 | -121.93934 | 23137 ft | 423 kts | 130° |
| 2026-05-08 04:31 | 37.12487 | -121.91067 | 23630 ft | 426 kts | 130° |
| 2026-05-08 04:31 | 37.10604 | -121.88183 | 24031 ft | 429 kts | 130° |
| 2026-05-08 04:32 | 37.08735 | -121.85321 | 24418 ft | 432 kts | 130° |
| 2026-05-08 04:32 | 37.06829 | -121.82402 | 24810 ft | 434 kts | 129° |
| 2026-05-08 04:32 | 37.04912 | -121.79468 | 25188 ft | 436 kts | 130° |
| 2026-05-08 04:32 | 37.02987 | -121.76527 | 25604 ft | 437 kts | 130° |
| 2026-05-08 04:33 | 37.01054 | -121.73584 | 25988 ft | 439 kts | 130° |
| 2026-05-08 04:33 | 36.99109 | -121.70623 | 26344 ft | 441 kts | 130° |
| 2026-05-08 04:33 | 36.97155 | -121.67654 | 26687 ft | 444 kts | 129° |
| 2026-05-08 04:33 | 36.95187 | -121.64664 | 27022 ft | 446 kts | 130° |
| 2026-05-08 04:34 | 36.93214 | -121.61664 | 27362 ft | 448 kts | 130° |
| 2026-05-08 04:34 | 36.91228 | -121.58648 | 27694 ft | 450 kts | 130° |
| 2026-05-08 04:34 | 36.89230 | -121.55617 | 28017 ft | 453 kts | 130° |
| 2026-05-08 04:34 | 36.87224 | -121.52578 | 28347 ft | 454 kts | 129° |
| 2026-05-08 04:35 | 36.85211 | -121.49529 | 28699 ft | 455 kts | 130° |
| 2026-05-08 04:35 | 36.83199 | -121.46481 | 29025 ft | 456 kts | 130° |
| 2026-05-08 04:35 | 36.81176 | -121.43421 | 29312 ft | 458 kts | 130° |
| 2026-05-08 04:35 | 36.79145 | -121.40350 | 29594 ft | 460 kts | 130° |
| 2026-05-08 04:36 | 36.77103 | -121.37268 | 29864 ft | 461 kts | 130° |
| 2026-05-08 04:36 | 36.75051 | -121.34178 | 30114 ft | 463 kts | 130° |
| 2026-05-08 04:36 | 36.72989 | -121.31078 | 30347 ft | 465 kts | 130° |
| 2026-05-08 04:36 | 36.70919 | -121.27968 | 30554 ft | 466 kts | 130° |
| 2026-05-08 04:37 | 36.68853 | -121.24865 | 30828 ft | 465 kts | 130° |
| 2026-05-08 04:37 | 36.66792 | -121.21767 | 31125 ft | 464 kts | 130° |
| 2026-05-08 04:37 | 36.64726 | -121.18667 | 31410 ft | 463 kts | 130° |
| 2026-05-08 04:37 | 36.62670 | -121.15584 | 31674 ft | 463 kts | 130° |
| 2026-05-08 04:38 | 36.60610 | -121.12495 | 31942 ft | 463 kts | 130° |
| 2026-05-08 04:38 | 36.58553 | -121.09416 | 32210 ft | 463 kts | 130° |
| 2026-05-08 04:38 | 36.56519 | -121.06379 | 32481 ft | 462 kts | 130° |
| 2026-05-08 04:38 | 36.54458 | -121.03305 | 32760 ft | 462 kts | 130° |
| 2026-05-08 04:39 | 36.52400 | -121.00235 | 33023 ft | 462 kts | 130° |
| 2026-05-08 04:39 | 36.50343 | -120.97165 | 33305 ft | 462 kts | 130° |
| 2026-05-08 04:39 | 36.48286 | -120.94093 | 33586 ft | 461 kts | 130° |
| 2026-05-08 04:39 | 36.46238 | -120.91029 | 33922 ft | 459 kts | 130° |
| 2026-05-08 04:40 | 36.44201 | -120.87978 | 34227 ft | 458 kts | 130° |
| 2026-05-08 04:40 | 36.42168 | -120.84930 | 34483 ft | 458 kts | 130° |
| 2026-05-08 04:40 | 36.40145 | -120.81896 | 34742 ft | 457 kts | 130° |
| 2026-05-08 04:40 | 36.38114 | -120.78856 | 34971 ft | 457 kts | 130° |
| 2026-05-08 04:41 | 36.36080 | -120.75816 | 35072 ft | 459 kts | 130° |
| 2026-05-08 04:41 | 36.34029 | -120.72753 | 35079 ft | 464 kts | 131° |
| 2026-05-08 04:41 | 36.29884 | -120.66574 | 35078 ft | 466 kts | 131° |
| 2026-05-08 04:42 | 36.25759 | -120.60434 | 35070 ft | 466 kts | 130° |
| 2026-05-08 04:42 | 36.21602 | -120.54263 | 35070 ft | 466 kts | 130° |
| 2026-05-08 04:43 | 36.17438 | -120.48104 | 35062 ft | 466 kts | 131° |
| 2026-05-08 04:43 | 36.13268 | -120.41944 | 35065 ft | 466 kts | 130° |
| 2026-05-08 04:44 | 36.09108 | -120.35790 | 35056 ft | 466 kts | 130° |
| 2026-05-08 04:44 | 36.04948 | -120.29649 | 35053 ft | 466 kts | 131° |
| 2026-05-08 04:45 | 36.00775 | -120.23508 | 35043 ft | 466 kts | 130° |
| 2026-05-08 04:45 | 35.96599 | -120.17379 | 35042 ft | 466 kts | 130° |
| 2026-05-08 04:46 | 35.92428 | -120.11262 | 35035 ft | 466 kts | 130° |
| 2026-05-08 04:46 | 35.88249 | -120.05144 | 35022 ft | 467 kts | 130° |
| 2026-05-08 04:47 | 35.84062 | -119.99028 | 35025 ft | 467 kts | 131° |
| 2026-05-08 04:47 | 35.79817 | -119.92950 | 35012 ft | 467 kts | 131° |
| 2026-05-08 04:48 | 35.75543 | -119.86930 | 35019 ft | 467 kts | 131° |
| 2026-05-08 04:48 | 35.71278 | -119.80898 | 35019 ft | 467 kts | 131° |
| 2026-05-08 04:49 | 35.67022 | -119.74854 | 35017 ft | 467 kts | 131° |
| 2026-05-08 04:49 | 35.62767 | -119.68831 | 35009 ft | 467 kts | 131° |
| 2026-05-08 04:50 | 35.58504 | -119.62810 | 35013 ft | 467 kts | 131° |
| 2026-05-08 04:50 | 35.54239 | -119.56793 | 35010 ft | 467 kts | 131° |
| 2026-05-08 04:51 | 35.49966 | -119.50779 | 35013 ft | 467 kts | 131° |
| 2026-05-08 04:51 | 35.45695 | -119.44777 | 35008 ft | 467 kts | 131° |
| 2026-05-08 04:52 | 35.41413 | -119.38774 | 35006 ft | 468 kts | 131° |
| 2026-05-08 04:52 | 35.37121 | -119.32778 | 35003 ft | 468 kts | 131° |
| 2026-05-08 04:53 | 35.32829 | -119.26795 | 35006 ft | 468 kts | 131° |
| 2026-05-08 04:53 | 35.28533 | -119.20800 | 35005 ft | 468 kts | 131° |
| 2026-05-08 04:54 | 35.24271 | -119.14853 | 35014 ft | 468 kts | 131° |
| 2026-05-08 04:54 | 35.19971 | -119.08879 | 35032 ft | 468 kts | 131° |
| 2026-05-08 04:55 | 35.15664 | -119.02904 | 35024 ft | 469 kts | 130° |
| 2026-05-08 04:55 | 35.11348 | -118.96913 | 35034 ft | 470 kts | 130° |
| 2026-05-08 04:56 | 35.07017 | -118.90918 | 35059 ft | 470 kts | 131° |
| 2026-05-08 04:56 | 35.02686 | -118.84945 | 35065 ft | 470 kts | 130° |
| 2026-05-08 04:57 | 34.98347 | -118.78976 | 35072 ft | 470 kts | 131° |
| 2026-05-08 04:57 | 34.94030 | -118.73043 | 35077 ft | 470 kts | 130° |
| 2026-05-08 04:58 | 34.89689 | -118.67069 | 35081 ft | 471 kts | 131° |
| 2026-05-08 04:58 | 34.85337 | -118.61097 | 35073 ft | 472 kts | 130° |
| 2026-05-08 04:59 | 34.80967 | -118.55134 | 35057 ft | 472 kts | 131° |
| 2026-05-08 04:59 | 34.76596 | -118.49178 | 35059 ft | 472 kts | 130° |
| 2026-05-08 05:00 | 34.72224 | -118.43207 | 35066 ft | 472 kts | 130° |
| 2026-05-08 05:00 | 34.67852 | -118.37247 | 35061 ft | 473 kts | 130° |
| 2026-05-08 05:01 | 34.63493 | -118.31328 | 35078 ft | 472 kts | 130° |
| 2026-05-08 05:01 | 34.59116 | -118.25387 | 35082 ft | 472 kts | 130° |
| 2026-05-08 05:02 | 34.54742 | -118.19449 | 35067 ft | 471 kts | 130° |
| 2026-05-08 05:02 | 34.50365 | -118.13522 | 35040 ft | 471 kts | 130° |
| 2026-05-08 05:03 | 34.45983 | -118.07616 | 35067 ft | 471 kts | 130° |
| 2026-05-08 05:03 | 34.42234 | -118.01173 | 35007 ft | 467 kts | 114° |
| 2026-05-08 05:04 | 34.40143 | -117.93775 | 35022 ft | 464 kts | 104° |
| 2026-05-08 05:04 | 34.38358 | -117.86260 | 35016 ft | 464 kts | 104° |
| 2026-05-08 05:05 | 34.36567 | -117.78799 | 35038 ft | 464 kts | 104° |
| 2026-05-08 05:05 | 34.34758 | -117.71296 | 35040 ft | 464 kts | 104° |
| 2026-05-08 05:06 | 34.32952 | -117.63783 | 35043 ft | 465 kts | 104° |
| 2026-05-08 05:06 | 34.31148 | -117.56287 | 35042 ft | 465 kts | 104° |
| 2026-05-08 05:07 | 34.29331 | -117.48772 | 35036 ft | 465 kts | 104° |
| 2026-05-08 05:07 | 34.27507 | -117.41268 | 35053 ft | 465 kts | 104° |
| 2026-05-08 05:08 | 34.25984 | -117.35035 | 35064 ft | 465 kts | 104° |
| 2026-05-08 05:08 | 34.23850 | -117.26319 | 35075 ft | 465 kts | 104° |
| 2026-05-08 05:09 | 34.22312 | -117.20044 | 35072 ft | 464 kts | 104° |
| 2026-05-08 05:09 | 34.20480 | -117.12564 | 35009 ft | 465 kts | 104° |
| 2026-05-08 05:10 | 34.17724 | -117.01398 | 35001 ft | 464 kts | 104° |
| 2026-05-08 05:11 | 34.15870 | -116.93920 | 34986 ft | 464 kts | 104° |
| 2026-05-08 05:11 | 34.14018 | -116.86443 | 34967 ft | 464 kts | 104° |
| 2026-05-08 05:12 | 34.12167 | -116.78985 | 34958 ft | 464 kts | 104° |
| 2026-05-08 05:12 | 34.10304 | -116.71519 | 34936 ft | 464 kts | 104° |
| 2026-05-08 05:13 | 34.08432 | -116.64057 | 34936 ft | 464 kts | 104° |
| 2026-05-08 05:13 | 34.06556 | -116.56608 | 34916 ft | 464 kts | 104° |
| 2026-05-08 05:14 | 34.04687 | -116.49167 | 34931 ft | 463 kts | 104° |
| 2026-05-08 05:14 | 34.02819 | -116.41779 | 34926 ft | 463 kts | 104° |
| 2026-05-08 05:15 | 34.00942 | -116.34371 | 34931 ft | 462 kts | 104° |
| 2026-05-08 05:15 | 33.99062 | -116.26963 | 34922 ft | 462 kts | 104° |
| 2026-05-08 05:16 | 33.97179 | -116.19572 | 34933 ft | 462 kts | 104° |
| 2026-05-08 05:16 | 33.95288 | -116.12171 | 34921 ft | 462 kts | 104° |
| 2026-05-08 05:17 | 33.93393 | -116.04779 | 34900 ft | 462 kts | 104° |
| 2026-05-08 05:17 | 33.91514 | -115.97439 | 34896 ft | 462 kts | 104° |
| 2026-05-08 05:18 | 33.89610 | -115.90051 | 34898 ft | 462 kts | 104° |
| 2026-05-08 05:18 | 33.87697 | -115.82651 | 34881 ft | 462 kts | 104° |
| 2026-05-08 05:19 | 33.85786 | -115.75268 | 34883 ft | 463 kts | 104° |
| 2026-05-08 05:19 | 33.83862 | -115.67881 | 34874 ft | 463 kts | 104° |
| 2026-05-08 05:20 | 33.81940 | -115.60488 | 34871 ft | 463 kts | 104° |
| 2026-05-08 05:20 | 33.80011 | -115.53096 | 34863 ft | 463 kts | 104° |
| 2026-05-08 05:21 | 33.78074 | -115.45692 | 34859 ft | 464 kts | 104° |
| 2026-05-08 05:21 | 33.76145 | -115.38345 | 34864 ft | 464 kts | 104° |
| 2026-05-08 05:22 | 33.74201 | -115.30938 | 34870 ft | 465 kts | 104° |
| 2026-05-08 05:22 | 33.72246 | -115.23531 | 34856 ft | 465 kts | 104° |
| 2026-05-08 05:23 | 33.70280 | -115.16126 | 34852 ft | 466 kts | 104° |
| 2026-05-08 05:23 | 33.68315 | -115.08715 | 34851 ft | 466 kts | 104° |
| 2026-05-08 05:24 | 33.66345 | -115.01296 | 34870 ft | 466 kts | 104° |
| 2026-05-08 05:24 | 33.64370 | -114.93884 | 34881 ft | 466 kts | 104° |
| 2026-05-08 05:25 | 33.62389 | -114.86484 | 34892 ft | 466 kts | 104° |
| 2026-05-08 05:25 | 33.60400 | -114.79086 | 34892 ft | 466 kts | 104° |
| 2026-05-08 05:26 | 33.58560 | -114.71652 | 34889 ft | 464 kts | 101° |
| 2026-05-08 05:26 | 33.57133 | -114.64109 | 34886 ft | 463 kts | 98° |
| 2026-05-08 05:26 | 33.56473 | -114.60317 | 34466 ft | 465 kts | 98° |
| 2026-05-08 05:27 | 33.55798 | -114.56522 | 34220 ft | 464 kts | 99° |
| 2026-05-08 05:27 | 33.55108 | -114.52782 | 33671 ft | 468 kts | 99° |
| 2026-05-08 05:27 | 33.54374 | -114.48961 | 32537 ft | 471 kts | 100° |
| 2026-05-08 05:27 | 33.53618 | -114.45149 | 31540 ft | 470 kts | 100° |
| 2026-05-08 05:28 | 33.52852 | -114.41336 | 30496 ft | 471 kts | 100° |
| 2026-05-08 05:28 | 33.52085 | -114.37516 | 29840 ft | 470 kts | 99° |
| 2026-05-08 05:28 | 33.51326 | -114.33714 | 29062 ft | 470 kts | 99° |
| 2026-05-08 05:28 | 33.50575 | -114.29915 | 28373 ft | 466 kts | 100° |
| 2026-05-08 05:29 | 33.49836 | -114.26168 | 27684 ft | 457 kts | 99° |
| 2026-05-08 05:29 | 33.49111 | -114.22492 | 27028 ft | 450 kts | 99° |
| 2026-05-08 05:29 | 33.48394 | -114.18870 | 26382 ft | 443 kts | 99° |
| 2026-05-08 05:29 | 33.47688 | -114.15299 | 25734 ft | 438 kts | 100° |
| 2026-05-08 05:30 | 33.46987 | -114.11769 | 25104 ft | 433 kts | 100° |
| 2026-05-08 05:30 | 33.46297 | -114.08298 | 24776 ft | 421 kts | 100° |
| 2026-05-08 05:30 | 33.45624 | -114.04951 | 24537 ft | 408 kts | 100° |
| 2026-05-08 05:30 | 33.44964 | -114.01676 | 24178 ft | 401 kts | 100° |
| 2026-05-08 05:31 | 33.44311 | -113.98435 | 23961 ft | 399 kts | 100° |
| 2026-05-08 05:31 | 33.43672 | -113.95252 | 23855 ft | 398 kts | 100° |
| 2026-05-08 05:31 | 33.43016 | -113.91983 | 23752 ft | 399 kts | 100° |
| 2026-05-08 05:31 | 33.42378 | -113.88805 | 23545 ft | 397 kts | 100° |
| 2026-05-08 05:32 | 33.41736 | -113.85601 | 23296 ft | 395 kts | 100° |
| 2026-05-08 05:32 | 33.41095 | -113.82406 | 23031 ft | 394 kts | 100° |
| 2026-05-08 05:32 | 33.40456 | -113.79226 | 22781 ft | 393 kts | 100° |
| 2026-05-08 05:32 | 33.39817 | -113.76062 | 22525 ft | 391 kts | 100° |
| 2026-05-08 05:33 | 33.39179 | -113.72910 | 22279 ft | 389 kts | 100° |
| 2026-05-08 05:33 | 33.38541 | -113.69768 | 22031 ft | 387 kts | 100° |
| 2026-05-08 05:33 | 33.37909 | -113.66655 | 21777 ft | 385 kts | 100° |
| 2026-05-08 05:33 | 33.37278 | -113.63549 | 21521 ft | 384 kts | 100° |
| 2026-05-08 05:34 | 33.36648 | -113.60446 | 21254 ft | 382 kts | 100° |
| 2026-05-08 05:34 | 33.36020 | -113.57356 | 21007 ft | 381 kts | 100° |
| 2026-05-08 05:34 | 33.35394 | -113.54278 | 20750 ft | 380 kts | 100° |
| 2026-05-08 05:34 | 33.34769 | -113.51211 | 20498 ft | 379 kts | 101° |
| 2026-05-08 05:35 | 33.34147 | -113.48148 | 20242 ft | 378 kts | 101° |
| 2026-05-08 05:35 | 33.33531 | -113.45106 | 19995 ft | 376 kts | 100° |
| 2026-05-08 05:35 | 33.32962 | -113.42056 | 19699 ft | 375 kts | 99° |
| 2026-05-08 05:35 | 33.32434 | -113.39017 | 19461 ft | 373 kts | 98° |
| 2026-05-08 05:36 | 33.31933 | -113.36016 | 19225 ft | 372 kts | 98° |
| 2026-05-08 05:36 | 33.31435 | -113.32989 | 18990 ft | 371 kts | 98° |
| 2026-05-08 05:36 | 33.30928 | -113.29931 | 18752 ft | 370 kts | 98° |
| 2026-05-08 05:36 | 33.30419 | -113.26928 | 18516 ft | 369 kts | 99° |
| 2026-05-08 05:37 | 33.29909 | -113.23962 | 18304 ft | 368 kts | 99° |
| 2026-05-08 05:37 | 33.29408 | -113.20972 | 18054 ft | 366 kts | 98° |
| 2026-05-08 05:37 | 33.28958 | -113.17982 | 17786 ft | 365 kts | 97° |
| 2026-05-08 05:37 | 33.28534 | -113.14992 | 17528 ft | 363 kts | 97° |
| 2026-05-08 05:38 | 33.28123 | -113.12025 | 17270 ft | 362 kts | 97° |
| 2026-05-08 05:38 | 33.27713 | -113.09079 | 17014 ft | 354 kts | 97° |
| 2026-05-08 05:38 | 33.27453 | -113.06204 | 16771 ft | 343 kts | 88° |
| 2026-05-08 05:38 | 33.27526 | -113.03393 | 16523 ft | 335 kts | 85° |
| 2026-05-08 05:39 | 33.27606 | -113.00630 | 16279 ft | 331 kts | 86° |
| 2026-05-08 05:39 | 33.27675 | -112.97925 | 16039 ft | 329 kts | 86° |
| 2026-05-08 05:39 | 33.27742 | -112.95162 | 15791 ft | 328 kts | 86° |
| 2026-05-08 05:39 | 33.27808 | -112.92478 | 15552 ft | 327 kts | 86° |
| 2026-05-08 05:40 | 33.27871 | -112.89767 | 15319 ft | 325 kts | 86° |
| 2026-05-08 05:40 | 33.27932 | -112.87068 | 15078 ft | 324 kts | 86° |
| 2026-05-08 05:40 | 33.27993 | -112.84399 | 14843 ft | 318 kts | 86° |
| 2026-05-08 05:40 | 33.28061 | -112.81791 | 14610 ft | 311 kts | 84° |
| 2026-05-08 05:41 | 33.28227 | -112.79236 | 14381 ft | 305 kts | 82° |
| 2026-05-08 05:41 | 33.28464 | -112.76733 | 14155 ft | 302 kts | 81° |
| 2026-05-08 05:41 | 33.28727 | -112.74250 | 13925 ft | 301 kts | 81° |
| 2026-05-08 05:41 | 33.28991 | -112.71772 | 13693 ft | 300 kts | 81° |
| 2026-05-08 05:42 | 33.29246 | -112.69305 | 13436 ft | 299 kts | 81° |
| 2026-05-08 05:42 | 33.29491 | -112.66842 | 13179 ft | 298 kts | 81° |
| 2026-05-08 05:42 | 33.29725 | -112.64383 | 12922 ft | 298 kts | 81° |
| 2026-05-08 05:42 | 33.29954 | -112.61930 | 12667 ft | 297 kts | 82° |
| 2026-05-08 05:43 | 33.30182 | -112.59480 | 12414 ft | 296 kts | 82° |
| 2026-05-08 05:43 | 33.30410 | -112.57035 | 12161 ft | 295 kts | 82° |
| 2026-05-08 05:43 | 33.30636 | -112.54599 | 11909 ft | 295 kts | 82° |
| 2026-05-08 05:43 | 33.30861 | -112.52166 | 11659 ft | 294 kts | 82° |
| 2026-05-08 05:44 | 33.31084 | -112.49738 | 11399 ft | 293 kts | 82° |
| 2026-05-08 05:44 | 33.31307 | -112.47323 | 11160 ft | 292 kts | 82° |
| 2026-05-08 05:44 | 33.31530 | -112.44909 | 11015 ft | 293 kts | 82° |
| 2026-05-08 05:44 | 33.31750 | -112.42484 | 10999 ft | 294 kts | 82° |
| 2026-05-08 05:45 | 33.31967 | -112.40078 | 11002 ft | 294 kts | 82° |
| 2026-05-08 05:45 | 33.32189 | -112.37645 | 11005 ft | 294 kts | 82° |
| 2026-05-08 05:45 | 33.32411 | -112.35211 | 10997 ft | 295 kts | 82° |
| 2026-05-08 05:45 | 33.32636 | -112.32773 | 10760 ft | 294 kts | 82° |
| 2026-05-08 05:46 | 33.32859 | -112.30349 | 10518 ft | 293 kts | 82° |
| 2026-05-08 05:46 | 33.33078 | -112.27932 | 10279 ft | 292 kts | 82° |
| 2026-05-08 05:46 | 33.33297 | -112.25518 | 10042 ft | 292 kts | 82° |
| 2026-05-08 05:46 | 33.33517 | -112.23111 | 9873 ft | 291 kts | 82° |
| 2026-05-08 05:47 | 33.33737 | -112.20701 | 9658 ft | 292 kts | 82° |
| 2026-05-08 05:47 | 33.33956 | -112.18294 | 9432 ft | 291 kts | 82° |
| 2026-05-08 05:47 | 33.34166 | -112.15943 | 9332 ft | 278 kts | 82° |
| 2026-05-08 05:47 | 33.34365 | -112.13692 | 9225 ft | 267 kts | 82° |
| 2026-05-08 05:48 | 33.34557 | -112.11533 | 9117 ft | 256 kts | 82° |
| 2026-05-08 05:48 | 33.34737 | -112.09451 | 9011 ft | 247 kts | 84° |
| 2026-05-08 05:48 | 33.34738 | -112.07387 | 8767 ft | 249 kts | 89° |
| 2026-05-08 05:48 | 33.34712 | -112.05319 | 8496 ft | 248 kts | 89° |
| 2026-05-08 05:49 | 33.34687 | -112.03269 | 8237 ft | 247 kts | 89° |
| 2026-05-08 05:49 | 33.34660 | -112.01211 | 7977 ft | 247 kts | 89° |
| 2026-05-08 05:49 | 33.34631 | -111.99149 | 7717 ft | 247 kts | 89° |
| 2026-05-08 05:49 | 33.34603 | -111.97092 | 7457 ft | 247 kts | 89° |
| 2026-05-08 05:50 | 33.34575 | -111.95036 | 7192 ft | 247 kts | 89° |
| 2026-05-08 05:50 | 33.34552 | -111.92977 | 6924 ft | 247 kts | 88° |
| 2026-05-08 05:50 | 33.34562 | -111.90922 | 6634 ft | 247 kts | 87° |
| 2026-05-08 05:50 | 33.34577 | -111.88869 | 6342 ft | 246 kts | 87° |
| 2026-05-08 05:51 | 33.34593 | -111.86822 | 6020 ft | 246 kts | 87° |
| 2026-05-08 05:51 | 33.34610 | -111.84778 | 5693 ft | 246 kts | 87° |
| 2026-05-08 05:51 | 33.34629 | -111.82760 | 5375 ft | 246 kts | 87° |
| 2026-05-08 05:51 | 33.34693 | -111.80718 | 5058 ft | 244 kts | 77° |
| 2026-05-08 05:52 | 33.35374 | -111.78917 | 4752 ft | 236 kts | 44° |
| 2026-05-08 05:52 | 33.36699 | -111.77869 | 4404 ft | 227 kts | 11° |
| 2026-05-08 05:52 | 33.38234 | -111.77757 | 4085 ft | 221 kts | 352° |
| 2026-05-08 05:52 | 33.39772 | -111.77965 | 4032 ft | 222 kts | 350° |
| 2026-05-08 05:53 | 33.41275 | -111.78359 | 4034 ft | 221 kts | 335° |
| 2026-05-08 05:53 | 33.42578 | -111.79304 | 4032 ft | 219 kts | 316° |
| 2026-05-08 05:53 | 33.43523 | -111.80703 | 3967 ft | 215 kts | 297° |
| 2026-05-08 05:53 | 33.44003 | -111.82380 | 3766 ft | 213 kts | 278° |
| 2026-05-08 05:54 | 33.44051 | -111.84148 | 3523 ft | 212 kts | 271° |
| 2026-05-08 05:54 | 33.44055 | -111.85906 | 3257 ft | 210 kts | 271° |
| 2026-05-08 05:54 | 33.44059 | -111.87633 | 2965 ft | 203 kts | 271° |
| 2026-05-08 05:54 | 33.44062 | -111.89272 | 2715 ft | 191 kts | 271° |
| 2026-05-08 05:55 | 33.44066 | -111.90810 | 2509 ft | 178 kts | 271° |
| 2026-05-08 05:55 | 33.44069 | -111.92233 | 2279 ft | 164 kts | 270° |
| 2026-05-08 05:55 | 33.44072 | -111.93577 | 2089 ft | 161 kts | 270° |
| 2026-05-08 05:55 | 33.44067 | -111.94923 | 1909 ft | 162 kts | 267° |
| 2026-05-08 05:56 | 33.44051 | -111.96265 | 1699 ft | 159 kts | 268° |
| 2026-05-08 05:56 | 33.44065 | -111.97573 | 1517 ft | 157 kts | 271° |
| 2026-05-08 05:56 | 33.44079 | -111.98888 | 1247 ft | 159 kts | 270° |
| 2026-05-08 05:56 | 33.44079 | -112.00174 | 1137 ft | 143 kts | 270° |
| 2026-05-08 05:57 | 33.44084 | -112.01012 | 1130 ft | 52 kts | 270° |
| 2026-05-08 05:57 | 33.44077 | -112.01280 | 1135 ft | 26 kts | 253° |
| 2026-05-08 05:57 | 33.43976 | -112.01427 | 1122 ft | 18 kts | 211° |
| 2026-05-08 05:57 | 33.43903 | -112.01366 | 1123 ft | 16 kts | 94° |
| 2026-05-08 05:58 | 33.43904 | -112.01228 | 1125 ft | 17 kts | 90° |
| 2026-05-08 05:58 | 33.43903 | -112.01127 | 1125 ft | 19 kts | 90° |
| 2026-05-08 05:58 | 33.43902 | -112.00966 | 1125 ft | 21 kts | 92° |
| 2026-05-08 05:58 | 33.43902 | -112.00725 | 1125 ft | 23 kts | 90° |
| 2026-05-08 05:59 | 33.43902 | -112.00593 | 1125 ft | 25 kts | 90° |
| 2026-05-08 05:59 | 33.43900 | -112.00380 | 1125 ft | 26 kts | 89° |
| 2026-05-08 05:59 | 33.43902 | -112.00197 | 1125 ft | 10 kts | 92° |
| 2026-05-08 05:59 | 33.43873 | -112.00172 | 1125 ft | 5 kts | 181° |
| 2026-05-08 06:00 | 33.43839 | -112.00172 | 1125 ft | 5 kts | 181° |
| 2026-05-08 06:00 | 33.43833 | -112.00172 | 1117 ft | 0 kts | 179° |